Ute Park, NM (87749)

5:19 AM MDT on October 02, 2014 (GMT -0600)
Angel Fire | Change Station
CLOSE
Current Station
Airport
Location: Angel Fire,
Elevation: 8379 ft
Nearby Weather Stations
Active Advisory: Special Statement

Elev 8379 ft 36.42 °N, 105.29 °W | Updated 24 minutes ago

Overcast
Overcast
37 °F
Feels Like 37 °F
N
0
Wind Variable Wind from North

Today
High -- | Low -- °F
--% Chance of Precip.
Yesterday
High -- | Low -- °F
Precip. -- in
6:56 AM 6:42 PM
First Quarter, 57% visible
Pressure 30.14 in
Visibility 10.0 miles
Clouds Scattered Clouds 6500 ft
Overcast 7000 ft
Dew Point 32 °F
Humidity 80%
Rainfall 0.00 in
Snow Depth 22 in , 0 in , 2 in
UV 0 out of 12
Pollen 4.80 out of 12
Air Quality Not available.
Flu Activity Not available.
METAR KAXX 021055Z AUTO 00000KT 10SM SCT065 OVC070 03/00 A3014 RMK AO2 T00291002

More Conditions Fewer Conditions

Pressure 30.14 in
Visibility 10.0 miles
Clouds Scattered Clouds 6500 ft
Overcast 7000 ft
Dew Point 32 °F
Humidity 80%
Rainfall 0.00 in
Snow Depth 22 in , 0 in , 2 in
UV 0 out of 12
Pollen 4.80 out of 12
Air Quality Not available.
Flu Activity Not available.
METAR KAXX 021055Z AUTO 00000KT 10SM SCT065 OVC070 03/00 A3014 RMK AO2 T00291002

More Conditions Fewer Conditions

10-Day Weather Forecast

Almanac

Astronomy

Oct. 02, 2014 Rise Set
Actual Time 6:56 AM MDT 6:42 PM MDT
Civil Twilight 6:30 AM MDT 7:08 PM MDT
Nautical Twilight 6:00 AM MDT 7:37 PM MDT
Astronomical Twilight 5:30 AM MDT 8:07 PM MDT
Moon 2:42 PM MDT 12:24 AM MDT
Length of Visible Light 12h 37m
Length of Day
11h 45m
Tomorrow will be 2m 18s shorter.
First Quarter, 57% of the Moon is Illuminated
Today
First Quarter
Oct 8
Full
Oct 15
Last Quarter
Oct 23
New
Oct 30
First Quarter

Today's Extremes

State Highs State Lows

Community

WunderPhotos

Upload Photos

1,758,216 photos uploaded!

WunderBlogs® & News

Nearby

Snow Depth

Station Depth Elevation
Silver Creek Divide 22 in 9000 ft
Rice Park 0 in 8460 ft
Quemazon 2 in 9500 ft
Tolby 1 in 10180 ft
Gallegos Peak 0 in 9800 ft

Earthquake Activity

City Distance Mag. Time & Date
Trinidad, Colorado 35 miles 2.9 3:55 AM MDT
2014-09-30
Minimum magnitude displayed is 2.5.

Coastal Water Temperatures

Place Temperature
No Stations Reporting

Nearby Weather Stations